Martin, Utah
Current Conditions -  °F | °C
As of 4:53 AM on Monday 24 Nov 2014 (Local Time) from KPUC Reporting Station
Clear Clear  
Wind Chill: 22°   Ceiling: Unl
Heat Index: 30°   Visibility: 10mi
Dew Point: 15°   Wind: 8mph
Humidity: 54%   Direction: 310°NW
Pressure: 30.12"   Gusts: NA
Location:  39.7304°N, 110.917°W
Report Text: KPUC 241153Z AUTO 31007KT 10SM CLR M01/M09 A3012 RMK AO2 SLP236 T10111094 10000 21017 51009
Loading
Personal Weather Stations






























Interactive Weather Map New forecast layout! Learn more

10-Day Weather Forecast

Advertisements
Track Severe Weather on mobile